Time;durP1;ratioP1;P1;durP2;ratioP2;P2;SDS_P1;SDS_P2;PMS_P1;PMS_P2;Temp;Humidity;BMP_temperature;BMP_pressure;BME280_temperature;BME280_humidity;BME280_pressure;Samples;Min_cycle;Max_cycle;Signal;HPM_P1;HPM_P2
2021/10/21 00:01:50;;;;;;;6.70;4.43;;;;;;;;;;5053246;28;20912;-47
2021/10/21 00:04:16;;;;;;;5.40;3.90;;;;;;;;;;5055795;28;20772;-47
2021/10/21 00:06:43;;;;;;;4.83;4.30;;;;;;;;;;5055699;28;20385;-47
2021/10/21 00:09:09;;;;;;;5.90;3.60;;;;;;;;;;5055718;28;20388;-48
2021/10/21 00:11:36;;;;;;;5.43;4.07;;;;;;;;;;5055390;28;20932;-48
2021/10/21 00:14:02;;;;;;;5.43;4.07;;;;;;;;;;5055390;28;20411;-48
2021/10/21 00:16:28;;;;;;;6.10;3.40;;;;;;;;;;5055432;28;20374;-47
2021/10/21 00:18:56;;;;;;;5.20;3.60;;;;;;;;;;5055401;28;20784;-47
2021/10/21 00:21:22;;;;;;;4.00;3.43;;;;;;;;;;5055403;28;20428;-47
2021/10/21 00:23:48;;;;;;;5.40;4.47;;;;;;;;;;5055467;28;20787;-47
2021/10/21 00:26:14;;;;;;;4.07;3.77;;;;;;;;;;5055398;28;20735;-47
2021/10/21 00:28:40;;;;;;;5.73;4.47;;;;;;;;;;5055505;28;20401;-45
2021/10/21 00:31:06;;;;;;;4.73;4.27;;;;;;;;;;5055102;28;20426;-46
2021/10/21 00:33:32;;;;;;;4.47;4.07;;;;;;;;;;5053634;28;20504;-47
2021/10/21 00:35:58;;;;;;;4.60;4.17;;;;;;;;;;5055183;28;20444;-46
2021/10/21 00:38:24;;;;;;;4.63;4.10;;;;;;;;;;5055140;28;20376;-46
2021/10/21 00:40:50;;;;;;;4.83;4.10;;;;;;;;;;5055139;28;20462;-46
2021/10/21 00:43:16;;;;;;;6.00;4.80;;;;;;;;;;5054825;28;20372;-46
2021/10/21 00:45:46;;;;;;;9.50;4.43;;;;;;;;;;5054916;28;20920;-46
2021/10/21 00:48:12;;;;;;;12.67;4.90;;;;;;;;;;5054943;28;20412;-46
2021/10/21 00:50:38;;;;;;;12.93;5.23;;;;;;;;;;5054930;28;20401;-47
2021/10/21 00:53:04;;;;;;;11.07;4.67;;;;;;;;;;5054498;28;20510;-52
2021/10/21 00:55:32;;;;;;;9.30;4.97;;;;;;;;;;5054809;28;20435;-47
2021/10/21 00:57:59;;;;;;;7.33;5.10;;;;;;;;;;5054612;28;20738;-48
2021/10/21 01:00:25;;;;;;;7.50;5.83;;;;;;;;;;5054716;28;20386;-47
2021/10/21 01:02:51;;;;;;;6.90;5.50;;;;;;;;;;5053615;28;20446;-47
2021/10/21 01:05:17;;;;;;;7.90;4.77;;;;;;;;;;5054225;28;20478;-48
2021/10/21 01:07:43;;;;;;;6.00;4.73;;;;;;;;;;5054333;28;20427;-47
2021/10/21 01:13:12;;;;;;;5.27;4.77;;;;;;;;;;5053950;28;20438;-47
2021/10/21 01:15:38;;;;;;;5.33;4.83;;;;;;;;;;5054466;28;20404;-47
2021/10/21 01:18:04;;;;;;;5.10;4.60;;;;;;;;;;5054274;28;20397;-47
2021/10/21 01:20:30;;;;;;;6.67;3.60;;;;;;;;;;5054515;28;20947;-49
2021/10/21 01:22:56;;;;;;;7.43;3.70;;;;;;;;;;5054018;28;20775;-46
2021/10/21 01:25:22;;;;;;;4.73;4.00;;;;;;;;;;5054207;28;20414;-46
2021/10/21 01:27:49;;;;;;;4.33;3.93;;;;;;;;;;5054167;28;20379;-46
2021/10/21 01:30:18;;;;;;;4.73;4.17;;;;;;;;;;5054257;28;20376;-46
2021/10/21 01:32:44;;;;;;;4.20;3.60;;;;;;;;;;5053779;28;20972;-46
2021/10/21 01:35:10;;;;;;;5.17;3.60;;;;;;;;;;5054111;28;20451;-46
2021/10/21 01:37:36;;;;;;;4.33;3.37;;;;;;;;;;5053995;28;20484;-46
2021/10/21 01:40:03;;;;;;;5.27;3.87;;;;;;;;;;5053904;28;20454;-46
2021/10/21 01:42:29;;;;;;;4.27;3.87;;;;;;;;;;5053682;28;20421;-46
2021/10/21 01:44:55;;;;;;;3.00;2.77;;;;;;;;;;5053887;28;20412;-46
2021/10/21 01:47:21;;;;;;;3.37;2.97;;;;;;;;;;5053909;28;20458;-46
2021/10/21 01:49:47;;;;;;;7.10;3.17;;;;;;;;;;5053838;28;20743;-46
2021/10/21 01:52:15;;;;;;;6.23;3.10;;;;;;;;;;5053432;28;20466;-46
2021/10/21 01:54:41;;;;;;;4.10;3.00;;;;;;;;;;5053649;28;20390;-46
2021/10/21 01:57:07;;;;;;;3.77;2.20;;;;;;;;;;5053658;28;20376;-47
2021/10/21 01:59:33;;;;;;;3.30;2.40;;;;;;;;;;5053715;28;20408;-46
2021/10/21 02:01:59;;;;;;;2.23;2.03;;;;;;;;;;5053303;28;20471;-46
2021/10/21 02:04:25;;;;;;;2.33;2.13;;;;;;;;;;5053597;28;20397;-46
2021/10/21 02:06:51;;;;;;;2.40;2.00;;;;;;;;;;5053436;28;20410;-47
2021/10/21 02:09:17;;;;;;;2.87;2.57;;;;;;;;;;5053373;28;20400;-47
2021/10/21 02:11:43;;;;;;;2.13;1.93;;;;;;;;;;5053124;28;20833;-49
2021/10/21 02:14:09;;;;;;;3.00;1.70;;;;;;;;;;5053248;28;20783;-46
2021/10/21 02:16:35;;;;;;;4.33;1.60;;;;;;;;;;5053344;28;20414;-46
2021/10/21 02:19:01;;;;;;;5.33;1.50;;;;;;;;;;5053202;28;20430;-47
2021/10/21 02:21:27;;;;;;;3.57;1.70;;;;;;;;;;5053146;28;20430;-47
2021/10/21 02:23:52;;;;;;;2.43;1.47;;;;;;;;;;5052356;28;20890;-46
2021/10/21 02:26:18;;;;;;;2.50;1.50;;;;;;;;;;5053075;28;20534;-46
2021/10/21 02:28:45;;;;;;;3.10;1.43;;;;;;;;;;5053077;28;20908;-47
2021/10/21 02:31:11;;;;;;;3.37;1.23;;;;;;;;;;5052923;28;20906;-47
2021/10/21 02:33:37;;;;;;;2.23;1.37;;;;;;;;;;5052787;28;20403;-46
2021/10/21 02:36:03;;;;;;;2.70;1.40;;;;;;;;;;5052997;28;20410;-47
2021/10/21 02:38:29;;;;;;;2.40;1.17;;;;;;;;;;5052736;28;20498;-47
2021/10/21 02:40:55;;;;;;;4.70;1.43;;;;;;;;;;5052713;28;20482;-48
2021/10/21 02:43:21;;;;;;;3.77;1.90;;;;;;;;;;5052528;28;20404;-47
2021/10/21 02:45:47;;;;;;;4.03;1.33;;;;;;;;;;5052707;28;20498;-47
2021/10/21 02:48:13;;;;;;;7.33;2.83;;;;;;;;;;5052689;28;20407;-48
2021/10/21 02:50:39;;;;;;;1.37;1.27;;;;;;;;;;5052695;28;20403;-48
2021/10/21 02:53:05;;;;;;;4.13;1.83;;;;;;;;;;5052098;28;20531;-49
2021/10/21 02:55:31;;;;;;;2.00;1.30;;;;;;;;;;5052564;28;20395;-47
2021/10/21 02:57:57;;;;;;;6.73;1.60;;;;;;;;;;5052692;28;20440;-47
2021/10/21 03:00:23;;;;;;;2.70;1.60;;;;;;;;;;5052506;28;20408;-47
2021/10/21 03:02:50;;;;;;;3.23;1.90;;;;;;;;;;5052152;28;20523;-48
2021/10/21 03:05:15;;;;;;;3.30;1.50;;;;;;;;;;5052441;28;20415;-47
2021/10/21 03:07:41;;;;;;;2.87;1.47;;;;;;;;;;5052272;28;20383;-48
2021/10/21 03:10:08;;;;;;;4.97;1.50;;;;;;;;;;5052311;28;20465;-47
2021/10/21 03:12:34;;;;;;;5.00;1.60;;;;;;;;;;5051945;28;20508;-48
2021/10/21 03:15:00;;;;;;;5.40;1.50;;;;;;;;;;5052290;28;20405;-48
2021/10/21 03:17:26;;;;;;;3.93;1.80;;;;;;;;;;5052132;28;20404;-48
2021/10/21 03:19:52;;;;;;;1.83;1.30;;;;;;;;;;5052100;28;20427;-48
2021/10/21 03:22:18;;;;;;;1.97;1.40;;;;;;;;;;5051768;28;20425;-48
2021/10/21 03:24:44;;;;;;;4.13;1.80;;;;;;;;;;5052045;28;20432;-49
2021/10/21 03:27:10;;;;;;;2.60;1.37;;;;;;;;;;5052021;28;20494;-49
2021/10/21 03:29:36;;;;;;;5.70;1.30;;;;;;;;;;5052051;28;20908;-47
2021/10/21 03:32:02;;;;;;;6.90;1.80;;;;;;;;;;5051586;28;20467;-50
2021/10/21 03:34:28;;;;;;;2.33;1.33;;;;;;;;;;5051989;28;20401;-47
2021/10/21 03:36:54;;;;;;;1.93;1.50;;;;;;;;;;5050973;28;20403;-47
2021/10/21 03:39:20;;;;;;;3.43;1.70;;;;;;;;;;5051869;28;20398;-47
2021/10/21 03:41:46;;;;;;;3.97;1.40;;;;;;;;;;5051594;28;20442;-48
2021/10/21 03:44:12;;;;;;;4.73;1.63;;;;;;;;;;5051841;28;20777;-47
2021/10/21 03:46:39;;;;;;;3.47;1.10;;;;;;;;;;5051739;28;20429;-47
2021/10/21 03:49:06;;;;;;;2.67;1.40;;;;;;;;;;5051712;28;20873;-47
2021/10/21 03:51:32;;;;;;;3.10;1.27;;;;;;;;;;5051512;28;20971;-47
2021/10/21 03:53:57;;;;;;;5.80;1.67;;;;;;;;;;5051436;28;20410;-47
2021/10/21 03:56:23;;;;;;;4.30;1.60;;;;;;;;;;5051658;28;20405;-47
2021/10/21 03:58:49;;;;;;;4.20;1.23;;;;;;;;;;5051693;28;20950;-48
2021/10/21 04:01:15;;;;;;;5.57;1.53;;;;;;;;;;5052037;28;20975;-48
2021/10/21 04:03:41;;;;;;;8.20;1.70;;;;;;;;;;5051370;28;20410;-48
2021/10/21 04:06:07;;;;;;;4.07;1.50;;;;;;;;;;5051591;28;20396;-48
2021/10/21 04:08:33;;;;;;;3.00;1.40;;;;;;;;;;5051527;28;20399;-48
2021/10/21 04:10:59;;;;;;;4.93;1.37;;;;;;;;;;5052243;28;20407;-46
2021/10/21 04:13:25;;;;;;;4.50;1.27;;;;;;;;;;5051235;28;20461;-47
2021/10/21 04:15:51;;;;;;;8.03;1.70;;;;;;;;;;5051505;28;20404;-47
2021/10/21 04:18:18;;;;;;;4.20;1.33;;;;;;;;;;5051408;28;20413;-47
2021/10/21 04:20:45;;;;;;;4.20;1.33;;;;;;;;;;5051458;28;20467;-47
2021/10/21 04:23:11;;;;;;;3.53;1.20;;;;;;;;;;5051134;28;20451;-50
2021/10/21 04:25:37;;;;;;;1.83;1.30;;;;;;;;;;5051486;28;20884;-46
2021/10/21 04:28:04;;;;;;;4.87;1.30;;;;;;;;;;5051350;28;20401;-46
2021/10/21 04:30:30;;;;;;;2.20;1.27;;;;;;;;;;5051355;28;20415;-47
2021/10/21 04:32:56;;;;;;;2.57;1.20;;;;;;;;;;5050935;28;20976;-50
2021/10/21 04:35:22;;;;;;;4.00;1.30;;;;;;;;;;5051305;28;20410;-50
2021/10/21 04:37:48;;;;;;;6.93;2.53;;;;;;;;;;5051299;28;21068;-47
2021/10/21 04:40:14;;;;;;;2.03;1.00;;;;;;;;;;5051267;28;20404;-47
2021/10/21 04:42:39;;;;;;;4.33;1.20;;;;;;;;;;5050998;28;20432;-47
2021/10/21 04:45:06;;;;;;;2.47;1.20;;;;;;;;;;5051241;28;20441;-47
2021/10/21 04:47:32;;;;;;;2.63;1.20;;;;;;;;;;5052439;28;20816;-47
2021/10/21 04:49:58;;;;;;;4.77;1.20;;;;;;;;;;5055009;28;20411;-47
2021/10/21 04:52:24;;;;;;;2.77;0.97;;;;;;;;;;5054552;28;20459;-47
2021/10/21 04:54:50;;;;;;;1.27;1.17;;;;;;;;;;5054876;28;20498;-48
2021/10/21 04:57:16;;;;;;;2.17;0.90;;;;;;;;;;5054919;28;20410;-47
2021/10/21 04:59:42;;;;;;;2.80;1.27;;;;;;;;;;5054850;28;20404;-47
2021/10/21 05:02:09;;;;;;;1.73;0.90;;;;;;;;;;5054428;28;20969;-48
2021/10/21 05:04:35;;;;;;;1.33;1.13;;;;;;;;;;5054817;28;20938;-47
2021/10/21 05:07:01;;;;;;;1.40;1.30;;;;;;;;;;5054573;28;20772;-47
2021/10/21 05:09:27;;;;;;;3.00;1.10;;;;;;;;;;5054584;28;20402;-47
2021/10/21 05:11:53;;;;;;;3.43;1.23;;;;;;;;;;5054244;28;20456;-46
2021/10/21 05:14:19;;;;;;;1.60;1.23;;;;;;;;;;5054513;28;20414;-47
2021/10/21 05:16:45;;;;;;;7.90;1.10;;;;;;;;;;5054358;28;20438;-47
2021/10/21 05:19:11;;;;;;;2.60;1.17;;;;;;;;;;5054268;28;20516;-47
2021/10/21 05:21:37;;;;;;;1.30;1.20;;;;;;;;;;5054263;28;20429;-49
2021/10/21 05:24:03;;;;;;;1.67;1.30;;;;;;;;;;5054149;28;20473;-47
2021/10/21 05:26:29;;;;;;;2.33;0.80;;;;;;;;;;5054220;28;20493;-46
2021/10/21 05:28:55;;;;;;;1.40;1.13;;;;;;;;;;5054280;28;20530;-46
2021/10/21 05:31:21;;;;;;;1.53;1.37;;;;;;;;;;5054005;28;20433;-46
2021/10/21 05:33:46;;;;;;;2.60;1.17;;;;;;;;;;5054152;28;20942;-47
2021/10/21 05:36:14;;;;;;;4.27;1.30;;;;;;;;;;5054094;28;20804;-47
2021/10/21 05:38:40;;;;;;;2.03;1.30;;;;;;;;;;5054271;28;20828;-47
2021/10/21 05:41:06;;;;;;;4.20;1.40;;;;;;;;;;5053899;28;20486;-49
2021/10/21 05:43:32;;;;;;;3.57;1.60;;;;;;;;;;5053738;28;20777;-48
2021/10/21 05:45:58;;;;;;;1.40;1.30;;;;;;;;;;5053841;28;20974;-48
2021/10/21 05:48:24;;;;;;;1.70;1.60;;;;;;;;;;5053894;28;20394;-47
2021/10/21 05:50:50;;;;;;;1.40;1.30;;;;;;;;;;5053823;28;20894;-47
2021/10/21 05:53:16;;;;;;;3.03;1.30;;;;;;;;;;5053724;28;20462;-47
2021/10/21 05:55:42;;;;;;;2.30;2.10;;;;;;;;;;5053799;28;20401;-46
2021/10/21 05:58:12;;;;;;;1.53;1.43;;;;;;;;;;5052208;28;20421;-47
2021/10/21 06:00:38;;;;;;;5.03;1.70;;;;;;;;;;5052987;28;20403;-47
2021/10/21 06:03:04;;;;;;;2.60;1.23;;;;;;;;;;5053342;28;20416;-47
2021/10/21 06:05:30;;;;;;;5.67;1.43;;;;;;;;;;5053512;28;20486;-47
2021/10/21 06:07:56;;;;;;;11.13;1.70;;;;;;;;;;5052174;28;20469;-48
2021/10/21 06:10:22;;;;;;;2.13;1.30;;;;;;;;;;5053439;28;20447;-47
2021/10/21 06:12:50;;;;;;;1.50;1.40;;;;;;;;;;5053056;28;20449;-48
2021/10/21 06:15:17;;;;;;;2.33;1.43;;;;;;;;;;5053338;28;20902;-50
2021/10/21 06:17:44;;;;;;;2.30;1.43;;;;;;;;;;5053281;28;20435;-47
2021/10/21 06:20:14;;;;;;;4.23;1.40;;;;;;;;;;5053292;28;20992;-48
2021/10/21 06:22:40;;;;;;;1.57;1.47;;;;;;;;;;5052946;28;20952;-47
2021/10/21 06:25:07;;;;;;;1.93;1.30;;;;;;;;;;5053193;28;20460;-47
2021/10/21 06:27:34;;;;;;;1.40;1.30;;;;;;;;;;5053014;28;20397;-47
2021/10/21 06:30:00;;;;;;;1.10;1.00;;;;;;;;;;5053361;28;20397;-47
2021/10/21 06:32:26;;;;;;;1.60;1.50;;;;;;;;;;5052668;28;20460;-47
2021/10/21 06:34:53;;;;;;;2.60;1.10;;;;;;;;;;5053140;28;20405;-47
2021/10/21 06:37:19;;;;;;;1.20;1.10;;;;;;;;;;5052906;28;20409;-46
2021/10/21 06:39:53;;;;;;;1.60;1.50;;;;;;;;;;5052962;28;20857;-47
2021/10/21 06:42:19;;;;;;;2.63;2.23;;;;;;;;;;5052561;28;20421;-46
2021/10/21 06:44:45;;;;;;;3.33;3.13;;;;;;;;;;5052829;28;20771;-47
2021/10/21 06:47:11;;;;;;;4.10;2.80;;;;;;;;;;5052556;28;20479;-47
2021/10/21 06:49:37;;;;;;;4.23;3.83;;;;;;;;;;5052796;28;20449;-47
2021/10/21 06:52:03;;;;;;;4.93;4.53;;;;;;;;;;5051704;28;20450;-47
2021/10/21 06:54:29;;;;;;;8.17;4.30;;;;;;;;;;5051807;28;20898;-47
2021/10/21 06:56:55;;;;;;;9.43;4.23;;;;;;;;;;5052045;28;20401;-47
2021/10/21 06:59:21;;;;;;;6.67;4.20;;;;;;;;;;5052103;28;20393;-47
2021/10/21 07:01:47;;;;;;;6.20;4.83;;;;;;;;;;5052115;28;20752;-50
2021/10/21 07:04:16;;;;;;;6.33;5.20;;;;;;;;;;5052222;28;20428;-46
2021/10/21 07:06:42;;;;;;;9.43;5.60;;;;;;;;;;5052092;28;20477;-46
2021/10/21 07:09:08;;;;;;;6.87;5.47;;;;;;;;;;5052318;28;20493;-46
2021/10/21 07:11:34;;;;;;;4.23;3.70;;;;;;;;;;5052000;28;20941;-46
2021/10/21 07:14:00;;;;;;;4.27;2.87;;;;;;;;;;5052239;28;20776;-47
2021/10/21 07:16:26;;;;;;;1.60;1.27;;;;;;;;;;5051119;28;20436;-48
2021/10/21 07:18:52;;;;;;;1.60;1.50;;;;;;;;;;5050179;28;20424;-49
2021/10/21 07:21:18;;;;;;;1.93;1.73;;;;;;;;;;5052277;28;20865;-49
2021/10/21 07:23:47;;;;;;;3.30;1.70;;;;;;;;;;5051404;28;20756;-49
2021/10/21 07:26:14;;;;;;;4.33;1.90;;;;;;;;;;5052955;28;20402;-47
2021/10/21 07:28:40;;;;;;;1.20;1.00;;;;;;;;;;5052064;28;20908;-47
2021/10/21 07:31:08;;;;;;;2.90;1.00;;;;;;;;;;5052045;28;20421;-47
2021/10/21 07:33:34;;;;;;;1.10;1.00;;;;;;;;;;5051702;28;20453;-47
2021/10/21 07:36:00;;;;;;;2.00;1.33;;;;;;;;;;5052076;28;20401;-48
2021/10/21 07:38:26;;;;;;;2.70;1.30;;;;;;;;;;5051818;28;20424;-48
2021/10/21 07:40:52;;;;;;;1.80;1.43;;;;;;;;;;5051843;28;20484;-48
2021/10/21 07:43:19;;;;;;;3.30;1.63;;;;;;;;;;5051658;28;20409;-47
2021/10/21 07:45:45;;;;;;;5.03;1.63;;;;;;;;;;5052036;28;20405;-48
2021/10/21 07:48:11;;;;;;;2.40;2.20;;;;;;;;;;5051691;28;20428;-48
2021/10/21 07:50:37;;;;;;;3.03;2.40;;;;;;;;;;5051663;28;20401;-48
2021/10/21 07:53:04;;;;;;;3.47;2.50;;;;;;;;;;5051417;28;20986;-47
2021/10/21 07:55:31;;;;;;;3.57;2.60;;;;;;;;;;5051719;28;20404;-48
2021/10/21 07:57:57;;;;;;;3.00;2.10;;;;;;;;;;5051483;28;20432;-49
2021/10/21 08:00:24;;;;;;;2.57;2.10;;;;;;;;;;5051241;28;20401;-48
2021/10/21 08:02:50;;;;;;;2.87;2.43;;;;;;;;;;5050131;28;20928;-47
2021/10/21 08:05:16;;;;;;;3.23;2.20;;;;;;;;;;5050495;28;20405;-48
2021/10/21 08:07:43;;;;;;;2.57;1.90;;;;;;;;;;5051455;28;20463;-48
2021/10/21 08:10:10;;;;;;;6.97;2.40;;;;;;;;;;5051619;28;20484;-47
2021/10/21 08:12:36;;;;;;;2.60;1.87;;;;;;;;;;5051173;28;20461;-48
2021/10/21 08:15:03;;;;;;;7.23;2.20;;;;;;;;;;5051551;28;20405;-48
2021/10/21 08:17:30;;;;;;;8.03;2.30;;;;;;;;;;5051438;28;20397;-47
2021/10/21 08:19:56;;;;;;;7.63;2.13;;;;;;;;;;5051901;28;20505;-47
2021/10/21 08:22:22;;;;;;;10.50;2.73;;;;;;;;;;5052189;28;20571;-47
2021/10/21 08:24:48;;;;;;;12.37;2.90;;;;;;;;;;5055471;28;20977;-49
2021/10/21 08:27:14;;;;;;;12.83;3.47;;;;;;;;;;5055682;28;20833;-48
2021/10/21 08:29:40;;;;;;;10.50;3.43;;;;;;;;;;5055390;28;20405;-47
2021/10/21 08:32:11;;;;;;;7.37;3.50;;;;;;;;;;5054979;28;20453;-48
2021/10/21 08:34:37;;;;;;;8.60;3.60;;;;;;;;;;5055281;28;20401;-50
2021/10/21 08:37:03;;;;;;;3.53;2.80;;;;;;;;;;5055466;28;20400;-48
2021/10/21 08:39:29;;;;;;;8.50;2.83;;;;;;;;;;5055445;28;20725;-50
2021/10/21 08:41:55;;;;;;;9.63;3.73;;;;;;;;;;5054877;28;20428;-48
2021/10/21 08:44:21;;;;;;;5.97;2.60;;;;;;;;;;5055086;28;20459;-48
2021/10/21 08:46:51;;;;;;;4.87;2.53;;;;;;;;;;5055015;28;20408;-48
2021/10/21 08:49:18;;;;;;;7.60;2.47;;;;;;;;;;5054712;28;20478;-48
2021/10/21 08:51:44;;;;;;;5.63;2.07;;;;;;;;;;5054760;28;20456;-48
2021/10/21 08:54:10;;;;;;;5.30;2.13;;;;;;;;;;5054848;28;20405;-47
2021/10/21 08:56:37;;;;;;;11.00;2.53;;;;;;;;;;5054810;28;20394;-48
2021/10/21 08:59:03;;;;;;;9.97;3.00;;;;;;;;;;5054687;28;20397;-48
2021/10/21 09:04:28;;;;;;;11.07;3.03;;;;;;;;;;5047328;28;20912;-48
2021/10/21 09:09:29;;;;;;;10.53;2.93;;;;;;;;;;5054673;28;20461;-50
2021/10/21 09:12:22;;;;;;;5.13;3.07;;;;;;;;;;5052507;28;20461;-50
2021/10/21 09:14:49;;;;;;;6.30;2.30;;;;;;;;;;5051486;28;20431;-50
2021/10/21 09:17:17;;;;;;;5.97;2.33;;;;;;;;;;5053574;28;20398;-48
2021/10/21 09:19:43;;;;;;;8.20;3.10;;;;;;;;;;5053641;28;20427;-48
2021/10/21 09:22:21;;;;;;;8.30;2.50;;;;;;;;;;5054105;28;20795;-49
2021/10/21 09:24:48;;;;;;;6.33;1.53;;;;;;;;;;5054176;28;20401;-49
2021/10/21 09:27:17;;;;;;;4.70;2.20;;;;;;;;;;5054218;28;20441;-49
2021/10/21 09:29:45;;;;;;;4.70;2.30;;;;;;;;;;5054157;28;20465;-49
2021/10/21 09:32:16;;;;;;;9.13;2.00;;;;;;;;;;5053783;28;20455;-49
2021/10/21 09:35:02;;;;;;;7.57;2.90;;;;;;;;;;5052772;28;20368;-49
2021/10/21 09:37:35;;;;;;;4.70;1.90;;;;;;;;;;5054051;28;20410;-49
2021/10/21 09:40:04;;;;;;;7.43;1.90;;;;;;;;;;5054083;28;20416;-49
2021/10/21 09:42:31;;;;;;;6.00;2.40;;;;;;;;;;5053975;28;20426;-51
2021/10/21 09:45:16;;;;;;;4.60;1.83;;;;;;;;;;5053914;28;20560;-49
2021/10/21 09:47:44;;;;;;;6.43;2.20;;;;;;;;;;5053619;28;20516;-49
2021/10/21 09:50:16;;;;;;;4.07;1.93;;;;;;;;;;5053848;28;20728;-49
2021/10/21 09:52:43;;;;;;;2.60;1.93;;;;;;;;;;5053534;28;20818;-49
2021/10/21 09:55:10;;;;;;;5.23;2.87;;;;;;;;;;5053707;28;20874;-51
2021/10/21 09:57:36;;;;;;;7.60;1.80;;;;;;;;;;5053635;28;20400;-49
2021/10/21 10:00:06;;;;;;;3.90;2.40;;;;;;;;;;5053457;28;20420;-50
2021/10/21 10:02:33;;;;;;;4.67;2.23;;;;;;;;;;5053281;28;20465;-49
2021/10/21 10:05:04;;;;;;;5.67;2.63;;;;;;;;;;5053619;28;20442;-49
2021/10/21 10:07:31;;;;;;;6.60;2.20;;;;;;;;;;5053487;28;20784;-50
2021/10/21 10:10:00;;;;;;;3.33;1.70;;;;;;;;;;5053529;28;20408;-49
2021/10/21 10:12:30;;;;;;;5.97;1.80;;;;;;;;;;5053691;28;20547;-50
2021/10/21 10:14:57;;;;;;;3.53;1.97;;;;;;;;;;5054126;28;20387;-52
2021/10/21 10:17:24;;;;;;;3.40;2.10;;;;;;;;;;5053313;28;20429;-50
2021/10/21 10:19:50;;;;;;;3.93;2.53;;;;;;;;;;5053280;28;20403;-51
2021/10/21 10:22:36;;;;;;;9.90;2.17;;;;;;;;;;5052953;28;20425;-51
2021/10/21 10:25:15;;;;;;;5.80;2.50;;;;;;;;;;5053206;28;20758;-51
2021/10/21 10:27:52;;;;;;;7.70;1.97;;;;;;;;;;5051841;28;20415;-51
2021/10/21 10:30:38;;;;;;;7.63;3.10;;;;;;;;;;5053185;28;20410;-51
2021/10/21 10:33:04;;;;;;;3.30;2.10;;;;;;;;;;5052913;28;20459;-50
2021/10/21 10:35:32;;;;;;;11.07;2.60;;;;;;;;;;5052909;28;20380;-50
2021/10/21 10:38:05;;;;;;;5.13;2.50;;;;;;;;;;5053090;28;20404;-50
2021/10/21 10:40:44;;;;;;;4.80;2.10;;;;;;;;;;5048366;28;20413;-50
2021/10/21 10:43:11;;;;;;;4.63;2.30;;;;;;;;;;5044220;28;20439;-50
2021/10/21 10:45:38;;;;;;;7.23;2.90;;;;;;;;;;5052310;28;20451;-50
2021/10/21 10:48:04;;;;;;;6.90;2.10;;;;;;;;;;5052415;28;20879;-50
2021/10/21 10:50:30;;;;;;;3.20;1.73;;;;;;;;;;5052841;28;20394;-50
2021/10/21 10:52:58;;;;;;;5.70;2.07;;;;;;;;;;5052226;28;20459;-50
2021/10/21 10:55:37;;;;;;;4.30;1.63;;;;;;;;;;5052693;28;20407;-50
2021/10/21 10:58:03;;;;;;;6.13;1.70;;;;;;;;;;5052526;28;20417;-49
2021/10/21 11:00:37;;;;;;;5.53;2.00;;;;;;;;;;5052421;28;20489;-50
2021/10/21 11:03:04;;;;;;;2.17;1.50;;;;;;;;;;5052241;28;20439;-50
2021/10/21 11:05:48;;;;;;;1.83;1.70;;;;;;;;;;5052554;28;20813;-49
2021/10/21 11:08:14;;;;;;;4.30;2.10;;;;;;;;;;5052390;28;20455;-50
2021/10/21 11:10:44;;;;;;;2.53;1.40;;;;;;;;;;5052373;28;20804;-50
2021/10/21 11:13:20;;;;;;;10.10;2.10;;;;;;;;;;5051861;28;20565;-50
2021/10/21 11:15:47;;;;;;;3.53;1.80;;;;;;;;;;5052317;28;20770;-50
2021/10/21 11:18:22;;;;;;;3.53;2.00;;;;;;;;;;5052047;28;20417;-50
2021/10/21 11:20:48;;;;;;;4.30;2.00;;;;;;;;;;5052196;28;20404;-50
2021/10/21 11:23:26;;;;;;;4.97;1.80;;;;;;;;;;5051878;28;20462;-50
2021/10/21 11:25:56;;;;;;;3.50;1.90;;;;;;;;;;5052347;28;20535;-50
2021/10/21 11:28:29;;;;;;;6.53;1.90;;;;;;;;;;5051986;28;20917;-50
2021/10/21 11:30:55;;;;;;;2.40;1.90;;;;;;;;;;5051972;28;20401;-51
2021/10/21 11:33:21;;;;;;;2.20;1.80;;;;;;;;;;5051692;28;20454;-50
2021/10/21 11:35:47;;;;;;;3.17;1.50;;;;;;;;;;5051958;28;20398;-50
2021/10/21 11:38:17;;;;;;;2.70;2.00;;;;;;;;;;5051748;28;20491;-50
2021/10/21 11:40:44;;;;;;;4.63;1.57;;;;;;;;;;5051879;28;20498;-50
2021/10/21 11:43:18;;;;;;;4.47;1.67;;;;;;;;;;5051547;28;20955;-50
2021/10/21 11:45:44;;;;;;;2.07;1.60;;;;;;;;;;5051808;28;20899;-50
2021/10/21 11:48:14;;;;;;;6.20;1.90;;;;;;;;;;5051792;28;20408;-50
2021/10/21 11:50:50;;;;;;;10.47;2.73;;;;;;;;;;5051735;28;20500;-50
2021/10/21 11:53:17;;;;;;;3.50;1.60;;;;;;;;;;5051370;28;20944;-50
2021/10/21 11:55:44;;;;;;;2.43;1.60;;;;;;;;;;5051796;28;20426;-50
2021/10/21 11:58:11;;;;;;;4.40;1.70;;;;;;;;;;5050855;28;20436;-49
2021/10/21 12:00:38;;;;;;;2.90;1.57;;;;;;;;;;5051694;28;20402;-50
2021/10/21 12:03:04;;;;;;;3.20;1.90;;;;;;;;;;5051301;28;20497;-50
2021/10/21 12:05:30;;;;;;;1.67;1.40;;;;;;;;;;5051682;28;20406;-50
2021/10/21 12:07:56;;;;;;;1.50;1.40;;;;;;;;;;5051575;28;20429;-51
2021/10/21 12:10:41;;;;;;;3.77;1.73;;;;;;;;;;5051692;28;20431;-50
2021/10/21 12:13:08;;;;;;;6.47;2.13;;;;;;;;;;5051277;28;20554;-50
2021/10/21 12:15:36;;;;;;;5.33;2.00;;;;;;;;;;5051553;28;20398;-51
2021/10/21 12:18:12;;;;;;;4.70;1.80;;;;;;;;;;5051476;28;20411;-51
2021/10/21 12:20:44;;;;;;;5.17;2.00;;;;;;;;;;5051562;28;20445;-50
2021/10/21 12:23:12;;;;;;;3.37;1.90;;;;;;;;;;5051257;28;20942;-51
2021/10/21 12:25:38;;;;;;;2.80;1.40;;;;;;;;;;5051488;28;20419;-50
2021/10/21 12:28:04;;;;;;;3.43;1.77;;;;;;;;;;5037359;28;20424;-50
2021/10/21 12:30:35;;;;;;;1.93;1.50;;;;;;;;;;5031551;28;20498;-51
2021/10/21 12:33:12;;;;;;;3.40;1.43;;;;;;;;;;5031195;28;20461;-50
2021/10/21 12:35:58;;;;;;;3.60;1.83;;;;;;;;;;5031486;28;20514;-49
2021/10/21 12:38:24;;;;;;;2.40;1.70;;;;;;;;;;5031285;28;20452;-48
2021/10/21 12:41:05;;;;;;;1.53;1.43;;;;;;;;;;5031366;28;20414;-48
2021/10/21 12:43:31;;;;;;;3.20;1.50;;;;;;;;;;5031162;28;20769;-47
2021/10/21 12:46:01;;;;;;;2.30;1.20;;;;;;;;;;5031361;28;20421;-47
2021/10/21 12:48:31;;;;;;;1.43;1.10;;;;;;;;;;5031288;28;20765;-48
2021/10/21 12:51:14;;;;;;;4.27;1.60;;;;;;;;;;5031193;28;20406;-51
2021/10/21 12:53:51;;;;;;;2.50;1.27;;;;;;;;;;5031078;28;20462;-48
2021/10/21 12:56:25;;;;;;;4.97;1.33;;;;;;;;;;5031305;28;20402;-47
2021/10/21 12:59:04;;;;;;;4.83;1.57;;;;;;;;;;5031474;28;20730;-48
2021/10/21 13:01:49;;;;;;;3.03;1.40;;;;;;;;;;5030995;28;20522;-49
2021/10/21 13:04:35;;;;;;;4.10;1.70;;;;;;;;;;5031231;28;20406;-48
2021/10/21 13:07:01;;;;;;;2.17;1.50;;;;;;;;;;5030907;28;20410;-48
2021/10/21 13:09:30;;;;;;;1.57;1.47;;;;;;;;;;5033665;28;20417;-48
2021/10/21 13:11:56;;;;;;;2.50;1.30;;;;;;;;;;5034246;28;20453;-48
2021/10/21 13:14:22;;;;;;;1.20;1.10;;;;;;;;;;5034619;28;20405;-49
2021/10/21 13:16:48;;;;;;;2.03;1.40;;;;;;;;;;5034533;28;20409;-47
2021/10/21 13:19:14;;;;;;;2.30;1.40;;;;;;;;;;5034457;28;20425;-48
2021/10/21 13:21:41;;;;;;;1.40;1.27;;;;;;;;;;5034333;28;20423;-48
2021/10/21 13:24:07;;;;;;;2.70;1.40;;;;;;;;;;5034227;28;20404;-48
2021/10/21 13:26:33;;;;;;;5.57;1.40;;;;;;;;;;5034200;28;20493;-48
2021/10/21 13:28:59;;;;;;;2.80;1.53;;;;;;;;;;5034308;28;20406;-48
2021/10/21 13:31:24;;;;;;;2.80;1.40;;;;;;;;;;5034172;28;20449;-47
2021/10/21 13:33:50;;;;;;;2.20;1.40;;;;;;;;;;5032678;28;20968;-48
2021/10/21 13:36:16;;;;;;;3.70;1.50;;;;;;;;;;5033323;28;20487;-48
2021/10/21 13:38:43;;;;;;;7.13;1.73;;;;;;;;;;5034034;28;20405;-48
2021/10/21 13:41:09;;;;;;;5.90;1.60;;;;;;;;;;5034082;28;20558;-48
2021/10/21 13:43:35;;;;;;;6.50;1.60;;;;;;;;;;5033808;28;20489;-48
2021/10/21 13:46:01;;;;;;;3.30;2.00;;;;;;;;;;5034303;28;20908;-49
2021/10/21 13:48:29;;;;;;;3.60;1.80;;;;;;;;;;5033926;28;20886;-49
2021/10/21 13:50:55;;;;;;;5.90;2.17;;;;;;;;;;5033784;28;20415;-48
2021/10/21 13:53:21;;;;;;;8.40;2.93;;;;;;;;;;5033383;28;20863;-49
2021/10/21 13:55:47;;;;;;;3.63;1.93;;;;;;;;;;5033761;28;20399;-48
2021/10/21 13:58:14;;;;;;;1.30;1.20;;;;;;;;;;5033613;28;20901;-49
2021/10/21 14:00:40;;;;;;;1.87;1.47;;;;;;;;;;5033315;28;20409;-50
2021/10/21 14:03:06;;;;;;;1.60;1.00;;;;;;;;;;5031443;28;20430;-48
2021/10/21 14:05:33;;;;;;;1.53;1.30;;;;;;;;;;5033482;28;20765;-49
2021/10/21 14:08:00;;;;;;;1.20;1.10;;;;;;;;;;5031877;28;20413;-49
2021/10/21 14:10:26;;;;;;;2.90;1.10;;;;;;;;;;5033580;28;20410;-49
2021/10/21 14:12:53;;;;;;;3.67;1.00;;;;;;;;;;5032957;28;20980;-49
2021/10/21 14:15:19;;;;;;;1.37;1.10;;;;;;;;;;5033514;28;20399;-48
2021/10/21 14:17:45;;;;;;;3.17;1.23;;;;;;;;;;5033464;28;20770;-49
2021/10/21 14:20:11;;;;;;;3.77;1.20;;;;;;;;;;5032434;28;20787;-49
2021/10/21 14:22:37;;;;;;;3.00;1.10;;;;;;;;;;5037701;28;20946;-49
2021/10/21 14:25:06;;;;;;;3.80;1.00;;;;;;;;;;5049603;28;20413;-49
2021/10/21 14:27:33;;;;;;;2.73;1.30;;;;;;;;;;5051567;28;20928;-50
2021/10/21 14:29:59;;;;;;;6.60;1.50;;;;;;;;;;5053003;28;20407;-48
2021/10/21 14:32:25;;;;;;;2.53;1.20;;;;;;;;;;5052798;28;20794;-49
2021/10/21 14:34:51;;;;;;;1.33;1.23;;;;;;;;;;5052992;28;20424;-49
2021/10/21 14:37:18;;;;;;;3.13;1.27;;;;;;;;;;5052758;28;20463;-49
2021/10/21 14:39:44;;;;;;;1.97;1.00;;;;;;;;;;5052896;28;20405;-48
2021/10/21 14:42:11;;;;;;;1.60;1.23;;;;;;;;;;5052768;28;20456;-49
2021/10/21 14:44:37;;;;;;;2.00;1.07;;;;;;;;;;5052965;28;20397;-49
2021/10/21 14:47:03;;;;;;;1.13;1.03;;;;;;;;;;5052696;28;20482;-49
2021/10/21 14:49:29;;;;;;;2.50;1.13;;;;;;;;;;5053219;28;20437;-49
2021/10/21 14:51:55;;;;;;;1.43;1.20;;;;;;;;;;5052171;28;20499;-49
2021/10/21 14:54:21;;;;;;;4.60;1.50;;;;;;;;;;5052607;28;20398;-49